Time;durP1;ratioP1;P1;durP2;ratioP2;P2;SDS_P1;SDS_P2;PMS_P1;PMS_P2;Temp;Humidity;BMP_temperature;BMP_pressure;BME280_temperature;BME280_humidity;BME280_pressure;Samples;Min_cycle;Max_cycle;Signal;HPM_P1;HPM_P2
2024/02/24 00:01:58;;;;;;;;;;;1.30;99.90;;;;;;5095625;28;20387;-63
2024/02/24 00:04:24;;;;;;;;;;;1.30;99.90;;;;;;5095794;28;19924;-63
2024/02/24 00:06:51;;;;;;;;;;;1.30;99.90;;;;;;5093946;28;20011;-63
2024/02/24 00:09:18;;;;;;;;;;;1.30;99.90;;;;;;5096396;28;19967;-62
2024/02/24 00:11:49;;;;;;;;;;;1.30;99.90;;;;;;5092083;28;19924;-63
2024/02/24 00:14:21;;;;;;;;;;;1.20;99.90;;;;;;5089930;28;19978;-63
2024/02/24 00:16:53;;;;;;;;;;;1.20;99.90;;;;;;5094320;28;19977;-63
2024/02/24 00:19:25;;;;;;;;;;;1.10;99.90;;;;;;5091957;28;19934;-63
2024/02/24 00:21:57;;;;;;;;;;;1.10;99.90;;;;;;5095727;28;19935;-63
2024/02/24 00:24:24;;;;;;;;;;;1.10;99.90;;;;;;5096890;28;20426;-63
2024/02/24 00:26:51;;;;;;;;;;;1.00;99.90;;;;;;5092020;28;19928;-63
2024/02/24 00:29:23;;;;;;;;;;;1.00;99.90;;;;;;5090869;28;19931;-63
2024/02/24 00:31:55;;;;;;;;;;;0.90;99.90;;;;;;5077688;28;20023;-63
2024/02/24 00:34:27;;;;;;;;;;;0.90;99.90;;;;;;5080374;28;20013;-63
2024/02/24 00:36:59;;;;;;;;;;;0.90;99.90;;;;;;5071894;28;19932;-63
2024/02/24 00:39:26;;;;;;;;;;;1.00;99.90;;;;;;5081545;28;19950;-62
2024/02/24 00:41:58;;;;;;;;;;;1.00;99.90;;;;;;5082378;28;19931;-63
2024/02/24 00:44:30;;;;;;;;;;;1.00;99.90;;;;;;5081488;28;19928;-63
2024/02/24 00:46:57;;;;;;;;;;;0.90;99.90;;;;;;5081045;28;19932;-62
2024/02/24 00:49:31;;;;;;;;;;;0.90;99.90;;;;;;5079655;28;19924;-62
2024/02/24 00:51:58;;;;;;;;;;;0.90;99.90;;;;;;5080551;28;19924;-62
2024/02/24 00:54:25;;;;;;;;;;;0.90;99.90;;;;;;5081941;28;19928;-63
2024/02/24 00:56:57;;;;;;;;;;;0.90;99.90;;;;;;5084545;28;19935;-62
2024/02/24 00:59:23;;;;;;;;;;;0.90;99.90;;;;;;5080801;28;19976;-62
2024/02/24 01:01:55;;;;;;;;;;;0.90;99.90;;;;;;5077840;28;19924;-62
2024/02/24 01:04:28;;;;;;;;;;;0.80;99.90;;;;;;5088600;28;19932;-62
2024/02/24 01:07:06;;;;;;;;;;;0.90;99.90;;;;;;5077181;28;19973;-63
2024/02/24 01:09:33;;;;;;;;;;;0.80;99.90;;;;;;5074797;28;20389;-63
2024/02/24 01:12:05;;;;;;;;;;;0.80;99.90;;;;;;5078440;28;19928;-62
2024/02/24 01:14:32;;;;;;;;;;;0.70;99.90;;;;;;5077180;28;20015;-62
2024/02/24 01:17:04;;;;;;;;;;;0.70;99.90;;;;;;5080186;28;19924;-62
2024/02/24 01:19:36;;;;;;;;;;;0.70;99.90;;;;;;5080772;28;19931;-63
2024/02/24 01:22:08;;;;;;;;;;;0.70;99.90;;;;;;5078886;28;19960;-62
2024/02/24 01:24:39;;;;;;;;;;;0.80;99.90;;;;;;5081503;28;19924;-62
2024/02/24 01:27:06;;;;;;;;;;;0.80;99.90;;;;;;5082317;28;20027;-62
2024/02/24 01:29:38;;;;;;;;;;;0.70;99.90;;;;;;5080413;28;20300;-62
2024/02/24 01:32:10;;;;;;;;;;;0.70;99.90;;;;;;5074628;28;19935;-62
2024/02/24 01:34:41;;;;;;;;;;;0.70;99.90;;;;;;5080091;28;19956;-63
2024/02/24 01:37:08;;;;;;;;;;;0.70;99.90;;;;;;5086926;28;20315;-63
2024/02/24 01:39:35;;;;;;;;;;;0.70;99.90;;;;;;5073695;28;19928;-62
2024/02/24 01:42:07;;;;;;;;;;;0.70;99.90;;;;;;5085369;28;20457;-63
2024/02/24 01:44:39;;;;;;;;;;;0.60;99.90;;;;;;5078412;28;19924;-62
2024/02/24 01:47:11;;;;;;;;;;;0.60;99.90;;;;;;5082311;28;20338;-62
2024/02/24 01:49:43;;;;;;;;;;;0.60;99.90;;;;;;5078850;28;19935;-62
2024/02/24 01:52:14;;;;;;;;;;;0.60;99.90;;;;;;5079132;28;19935;-63
2024/02/24 01:54:47;;;;;;;;;;;0.60;99.90;;;;;;5079681;28;19935;-62
2024/02/24 01:57:18;;;;;;;;;;;0.70;99.90;;;;;;5082743;28;19974;-63
2024/02/24 01:59:50;;;;;;;;;;;0.70;99.90;;;;;;5078410;28;20014;-62
2024/02/24 02:02:22;;;;;;;;;;;0.70;99.90;;;;;;5073711;28;20019;-62
2024/02/24 02:04:54;;;;;;;;;;;0.70;99.90;;;;;;5065471;28;19931;-62
2024/02/24 02:07:26;;;;;;;;;;;0.60;99.90;;;;;;5078085;28;20288;-63
2024/02/24 02:09:58;;;;;;;;;;;0.60;99.90;;;;;;5085838;28;19940;-63
2024/02/24 02:12:31;;;;;;;;;;;0.60;99.90;;;;;;5086977;28;19931;-63
2024/02/24 02:15:03;;;;;;;;;;;0.60;99.90;;;;;;5088010;28;20026;-62
2024/02/24 02:17:30;;;;;;;;;;;0.70;99.90;;;;;;5085280;28;19924;-63
2024/02/24 02:20:03;;;;;;;;;;;0.60;99.90;;;;;;5085125;28;20037;-63
2024/02/24 02:22:32;;;;;;;;;;;0.60;99.90;;;;;;5079250;28;19924;-63
2024/02/24 02:25:04;;;;;;;;;;;0.50;99.90;;;;;;5086368;28;19932;-62
2024/02/24 02:27:36;;;;;;;;;;;0.50;99.90;;;;;;5083100;28;19924;-62
2024/02/24 02:30:03;;;;;;;;;;;0.40;99.90;;;;;;5080762;28;19931;-62
2024/02/24 02:32:35;;;;;;;;;;;0.50;99.90;;;;;;5081186;28;19925;-62
2024/02/24 02:35:02;;;;;;;;;;;0.50;99.90;;;;;;5085613;28;20033;-63
2024/02/24 02:37:34;;;;;;;;;;;0.50;99.90;;;;;;5088548;28;19983;-62
2024/02/24 02:40:06;;;;;;;;;;;0.50;99.90;;;;;;5087572;28;20655;-62
2024/02/24 02:42:39;;;;;;;;;;;0.60;99.90;;;;;;5082643;28;20312;-63
2024/02/24 02:45:05;;;;;;;;;;;0.60;99.90;;;;;;5085165;28;20729;-62
2024/02/24 02:47:38;;;;;;;;;;;0.50;99.90;;;;;;5062808;28;20313;-62
2024/02/24 02:50:09;;;;;;;;;;;0.60;99.90;;;;;;5086205;28;19924;-62
2024/02/24 02:52:41;;;;;;;;;;;0.60;99.90;;;;;;5088658;28;19924;-62
2024/02/24 02:55:13;;;;;;;;;;;0.70;99.90;;;;;;5072680;28;19929;-62
2024/02/24 02:57:45;;;;;;;;;;;0.80;99.90;;;;;;5072953;28;19935;-62
2024/02/24 03:00:16;;;;;;;;;;;0.80;99.90;;;;;;5075283;28;20011;-62
2024/02/24 03:02:48;;;;;;;;;;;0.90;99.90;;;;;;5077898;28;20031;-62
2024/02/24 03:05:20;;;;;;;;;;;0.80;99.90;;;;;;5082206;28;19934;-62
2024/02/24 03:07:52;;;;;;;;;;;0.70;99.90;;;;;;5080435;28;19967;-62
2024/02/24 03:10:24;;;;;;;;;;;0.70;99.90;;;;;;5082578;28;19924;-62
2024/02/24 03:12:55;;;;;;;;;;;0.80;99.90;;;;;;5077100;28;19932;-62
2024/02/24 03:15:27;;;;;;;;;;;0.80;99.90;;;;;;5075489;28;19936;-62
2024/02/24 03:17:59;;;;;;;;;;;0.90;99.90;;;;;;5071664;28;19925;-62
2024/02/24 03:20:31;;;;;;;;;;;0.80;99.90;;;;;;5071458;28;19924;-62
2024/02/24 03:23:04;;;;;;;;;;;0.80;99.90;;;;;;5075015;28;20281;-62
2024/02/24 03:25:36;;;;;;;;;;;0.80;99.90;;;;;;5072802;28;20411;-62
2024/02/24 03:28:08;;;;;;;;;;;0.70;99.90;;;;;;5071725;28;19928;-62
2024/02/24 03:30:40;;;;;;;;;;;0.70;99.90;;;;;;5082516;28;20029;-62
2024/02/24 03:33:12;;;;;;;;;;;0.70;99.90;;;;;;5080572;28;20022;-62
2024/02/24 03:35:44;;;;;;;;;;;0.70;99.90;;;;;;5081584;28;19928;-62
2024/02/24 03:38:15;;;;;;;;;;;0.70;99.90;;;;;;5076077;28;19924;-62
2024/02/24 03:40:47;;;;;;;;;;;0.80;99.90;;;;;;5074318;28;20055;-62
2024/02/24 03:43:19;;;;;;;;;;;0.80;99.90;;;;;;5088004;28;20019;-62
2024/02/24 03:45:51;;;;;;;;;;;0.90;99.90;;;;;;5075481;28;19924;-62
2024/02/24 03:48:23;;;;;;;;;;;0.90;99.90;;;;;;5085210;28;19967;-62
2024/02/24 03:50:54;;;;;;;;;;;0.90;99.90;;;;;;5078423;28;19978;-62
2024/02/24 03:53:28;;;;;;;;;;;0.90;99.90;;;;;;5091854;28;20024;-62
2024/02/24 03:55:59;;;;;;;;;;;0.90;99.90;;;;;;5083922;28;20336;-62
2024/02/24 03:58:31;;;;;;;;;;;0.80;99.90;;;;;;5083688;28;19928;-62
2024/02/24 04:01:03;;;;;;;;;;;0.80;99.90;;;;;;5082466;28;19940;-62
2024/02/24 04:03:34;;;;;;;;;;;0.70;99.90;;;;;;5082117;28;19924;-62
2024/02/24 04:06:07;;;;;;;;;;;0.70;99.90;;;;;;5088636;28;19924;-62
2024/02/24 04:08:39;;;;;;;;;;;0.70;99.90;;;;;;5092915;28;19978;-62
2024/02/24 04:11:11;;;;;;;;;;;0.70;99.90;;;;;;5078979;28;19931;-62
2024/02/24 04:13:43;;;;;;;;;;;0.60;99.90;;;;;;5066880;28;19928;-62
2024/02/24 04:16:15;;;;;;;;;;;0.70;99.90;;;;;;5084722;28;19967;-62
2024/02/24 04:18:46;;;;;;;;;;;0.70;99.90;;;;;;5093225;28;20022;-62
2024/02/24 04:21:13;;;;;;;;;;;0.70;99.90;;;;;;5074008;28;19924;-62
2024/02/24 04:23:45;;;;;;;;;;;0.70;99.90;;;;;;5086228;28;19936;-62
2024/02/24 04:26:17;;;;;;;;;;;0.70;99.90;;;;;;5082796;28;20021;-62
2024/02/24 04:28:49;;;;;;;;;;;0.70;99.90;;;;;;5088384;28;19928;-62
2024/02/24 04:31:20;;;;;;;;;;;0.70;99.90;;;;;;5083976;28;20034;-62
2024/02/24 04:33:53;;;;;;;;;;;0.70;99.90;;;;;;5083369;28;19970;-62
2024/02/24 04:36:19;;;;;;;;;;;0.70;99.90;;;;;;5085151;28;20304;-62
2024/02/24 04:38:51;;;;;;;;;;;0.70;99.90;;;;;;5087557;28;19938;-62
2024/02/24 04:41:23;;;;;;;;;;;0.70;99.90;;;;;;5083391;28;20423;-62
2024/02/24 04:43:55;;;;;;;;;;;0.70;99.90;;;;;;5083939;28;20422;-62
2024/02/24 04:46:27;;;;;;;;;;;0.80;99.90;;;;;;5086973;28;20031;-62
2024/02/24 04:49:00;;;;;;;;;;;0.80;99.90;;;;;;5087229;28;19925;-62
2024/02/24 04:51:32;;;;;;;;;;;0.90;99.90;;;;;;5085530;28;19930;-62
2024/02/24 04:54:04;;;;;;;;;;;0.90;99.90;;;;;;5088435;28;19978;-62
2024/02/24 04:56:35;;;;;;;;;;;1.00;99.90;;;;;;5087978;28;19960;-62
2024/02/24 04:59:07;;;;;;;;;;;0.90;99.90;;;;;;5089816;28;20027;-62
2024/02/24 05:01:39;;;;;;;;;;;0.90;99.90;;;;;;5084822;28;20412;-62
2024/02/24 05:04:06;;;;;;;;;;;0.90;99.90;;;;;;5088306;28;20042;-62
2024/02/24 05:06:37;;;;;;;;;;;0.80;99.90;;;;;;5086461;28;19924;-62
2024/02/24 05:09:11;;;;;;;;;;;0.80;99.90;;;;;;5077875;28;19928;-62
2024/02/24 05:11:43;;;;;;;;;;;0.70;99.90;;;;;;5087028;28;19950;-62
2024/02/24 05:14:18;;;;;;;;;;;0.70;99.90;;;;;;5075526;28;20024;-62
2024/02/24 05:16:50;;;;;;;;;;;0.70;99.90;;;;;;5079518;28;19932;-62
2024/02/24 05:19:22;;;;;;;;;;;0.60;99.90;;;;;;5082438;28;19931;-62
2024/02/24 05:21:54;;;;;;;;;;;0.60;99.90;;;;;;5082393;28;19928;-62
2024/02/24 05:24:26;;;;;;;;;;;0.60;99.90;;;;;;5086346;28;20614;-62
2024/02/24 05:26:58;;;;;;;;;;;0.50;99.90;;;;;;5087558;28;19960;-62
2024/02/24 05:29:24;;;;;;;;;;;0.50;99.90;;;;;;5089137;28;20023;-62
2024/02/24 05:31:56;;;;;;;;;;;0.60;99.90;;;;;;5085771;28;20007;-62
2024/02/24 05:34:28;;;;;;;;;;;0.60;99.90;;;;;;5072796;28;19928;-62
2024/02/24 05:37:00;;;;;;;;;;;0.60;99.90;;;;;;5087697;28;20022;-62
2024/02/24 05:39:31;;;;;;;;;;;0.60;99.90;;;;;;5084194;28;19928;-62
2024/02/24 05:42:04;;;;;;;;;;;0.60;99.90;;;;;;5079201;28;20467;-62
2024/02/24 05:44:35;;;;;;;;;;;0.60;99.90;;;;;;5082509;28;19924;-62
2024/02/24 05:47:07;;;;;;;;;;;0.70;99.90;;;;;;5083987;28;19924;-62
2024/02/24 05:49:34;;;;;;;;;;;0.70;99.90;;;;;;5080905;28;20297;-62
2024/02/24 05:52:06;;;;;;;;;;;0.60;99.90;;;;;;5080729;28;20400;-62
2024/02/24 05:54:40;;;;;;;;;;;0.60;99.90;;;;;;5077224;28;19924;-62
2024/02/24 05:57:12;;;;;;;;;;;0.60;99.90;;;;;;5073231;28;20404;-62
2024/02/24 05:59:44;;;;;;;;;;;0.60;99.90;;;;;;5069021;28;19929;-62
2024/02/24 06:02:16;;;;;;;;;;;0.60;99.90;;;;;;5076567;28;19938;-62
2024/02/24 06:04:48;;;;;;;;;;;0.60;99.90;;;;;;5075873;28;20406;-62
2024/02/24 06:07:20;;;;;;;;;;;0.60;99.90;;;;;;5078375;28;19927;-62
2024/02/24 06:09:52;;;;;;;;;;;0.60;99.90;;;;;;5083357;28;19928;-63
2024/02/24 06:12:19;;;;;;;;;;;0.60;99.90;;;;;;5081997;28;20291;-62
2024/02/24 06:14:46;;;;;;;;;;;0.50;99.90;;;;;;5080256;28;19967;-62
2024/02/24 06:17:18;;;;;;;;;;;0.50;99.90;;;;;;5074010;28;19924;-63
2024/02/24 06:19:44;;;;;;;;;;;0.40;99.90;;;;;;5075838;28;19935;-62
2024/02/24 06:22:11;;;;;;;;;;;0.40;99.90;;;;;;5074159;28;20015;-62
2024/02/24 06:24:43;;;;;;;;;;;0.40;99.90;;;;;;5076595;28;20439;-62
2024/02/24 06:27:15;;;;;;;;;;;0.50;99.90;;;;;;5085353;28;19974;-62
2024/02/24 06:29:46;;;;;;;;;;;0.40;99.90;;;;;;5086817;28;20495;-62
2024/02/24 06:32:18;;;;;;;;;;;0.40;99.90;;;;;;5086533;28;19925;-62
2024/02/24 06:34:50;;;;;;;;;;;0.40;99.90;;;;;;5072276;28;19929;-62
2024/02/24 06:37:22;;;;;;;;;;;0.40;99.90;;;;;;5084596;28;19947;-62
2024/02/24 06:39:53;;;;;;;;;;;0.50;99.90;;;;;;5079875;28;19934;-62
2024/02/24 06:42:25;;;;;;;;;;;0.50;99.90;;;;;;5078830;28;19924;-62
2024/02/24 06:44:57;;;;;;;;;;;0.50;99.90;;;;;;5078050;28;19932;-62
2024/02/24 06:47:28;;;;;;;;;;;0.50;99.90;;;;;;5087417;28;19924;-62
2024/02/24 06:49:55;;;;;;;;;;;0.60;99.90;;;;;;5072617;28;20023;-62
2024/02/24 06:52:22;;;;;;;;;;;0.60;99.90;;;;;;5072082;28;20015;-62
2024/02/24 06:54:54;;;;;;;;;;;0.60;99.90;;;;;;5060163;28;20321;-62
2024/02/24 06:57:26;;;;;;;;;;;0.60;99.90;;;;;;5085205;28;20289;-62
2024/02/24 06:59:58;;;;;;;;;;;0.60;99.90;;;;;;5077441;28;19924;-62
2024/02/24 07:02:30;;;;;;;;;;;0.60;99.90;;;;;;5082562;28;19928;-62
2024/02/24 07:05:03;;;;;;;;;;;0.70;99.90;;;;;;5072139;28;20031;-62
2024/02/24 07:07:35;;;;;;;;;;;0.70;99.90;;;;;;5083618;28;19924;-62
2024/02/24 07:10:08;;;;;;;;;;;0.70;99.90;;;;;;5083145;28;20661;-63
2024/02/24 07:12:40;;;;;;;;;;;0.70;99.90;;;;;;5074122;28;19928;-62
2024/02/24 07:15:07;;;;;;;;;;;0.80;99.90;;;;;;5076445;28;19928;-63
2024/02/24 07:17:39;;;;;;;;;;;0.80;99.90;;;;;;5086453;28;19978;-63
2024/02/24 07:20:11;;;;;;;;;;;0.90;99.90;;;;;;5086703;28;20031;-63
2024/02/24 07:22:37;;;;;;;;;;;0.90;99.90;;;;;;5079503;28;19924;-63
2024/02/24 07:25:09;;;;;;;;;;;0.90;99.90;;;;;;5085209;28;19924;-64
2024/02/24 07:27:41;;;;;;;;;;;1.00;99.90;;;;;;5077456;28;19924;-62
2024/02/24 07:30:13;;;;;;;;;;;1.00;99.90;;;;;;5078969;28;20015;-62
2024/02/24 07:32:44;;;;;;;;;;;1.10;99.90;;;;;;5081162;28;19936;-62
2024/02/24 07:35:16;;;;;;;;;;;1.20;99.90;;;;;;5085514;28;19982;-62
2024/02/24 07:37:49;;;;;;;;;;;1.20;99.90;;;;;;5084096;28;20376;-62
2024/02/24 07:40:20;;;;;;;;;;;1.40;99.90;;;;;;5088188;28;19928;-62
2024/02/24 07:42:54;;;;;;;;;;;1.50;99.90;;;;;;5091147;28;19963;-62
2024/02/24 07:45:26;;;;;;;;;;;1.80;99.90;;;;;;5089921;28;19931;-62
2024/02/24 07:47:57;;;;;;;;;;;2.20;99.90;;;;;;5086663;28;20012;-62
2024/02/24 07:50:29;;;;;;;;;;;2.30;99.90;;;;;;5089890;28;19967;-62
2024/02/24 07:53:01;;;;;;;;;;;2.50;99.90;;;;;;5090885;28;19928;-62
2024/02/24 07:55:33;;;;;;;;;;;2.70;99.90;;;;;;5089164;28;20467;-62
2024/02/24 07:58:05;;;;;;;;;;;3.20;99.90;;;;;;5091932;28;20469;-62
2024/02/24 08:00:36;;;;;;;;;;;3.60;99.90;;;;;;5084578;28;19928;-62
2024/02/24 08:03:03;;;;;;;;;;;3.80;99.90;;;;;;5091366;28;19928;-63
2024/02/24 08:05:35;;;;;;;;;;;3.90;99.90;;;;;;5085423;28;20325;-63
2024/02/24 08:08:02;;;;;;;;;;;4.10;99.90;;;;;;5087014;28;20030;-62
2024/02/24 08:10:34;;;;;;;;;;;4.10;99.90;;;;;;5091467;28;19931;-62
2024/02/24 08:13:01;;;;;;;;;;;4.20;99.90;;;;;;5090176;28;19939;-63
2024/02/24 08:15:33;;;;;;;;;;;4.30;99.90;;;;;;5092116;28;20414;-63
2024/02/24 08:18:05;;;;;;;;;;;4.30;99.90;;;;;;5084422;28;19927;-63
2024/02/24 08:20:37;;;;;;;;;;;4.40;99.90;;;;;;5085814;28;19964;-63
2024/02/24 08:23:09;;;;;;;;;;;4.40;99.90;;;;;;5085954;28;19932;-63
2024/02/24 08:25:41;;;;;;;;;;;4.50;99.90;;;;;;5088139;28;20392;-63
2024/02/24 08:28:14;;;;;;;;;;;4.50;99.90;;;;;;5084006;28;20457;-63
2024/02/24 08:30:46;;;;;;;;;;;4.60;99.90;;;;;;5079586;28;19929;-63
2024/02/24 08:33:22;;;;;;;;;;;4.60;99.90;;;;;;5082704;28;19931;-63
2024/02/24 08:35:54;;;;;;;;;;;4.70;99.90;;;;;;5075789;28;20128;-63
2024/02/24 08:38:21;;;;;;;;;;;4.70;99.90;;;;;;5080463;28;19932;-63
2024/02/24 08:40:48;;;;;;;;;;;4.80;99.90;;;;;;5086526;28;20396;-63
2024/02/24 08:43:14;;;;;;;;;;;5.00;99.90;;;;;;5083823;28;20007;-63
2024/02/24 08:45:46;;;;;;;;;;;5.10;99.90;;;;;;5071082;28;19924;-63
2024/02/24 08:48:18;;;;;;;;;;;5.10;99.90;;;;;;5066431;28;19939;-62
2024/02/24 08:50:49;;;;;;;;;;;5.10;99.90;;;;;;5082383;28;19928;-63
2024/02/24 08:53:16;;;;;;;;;;;5.00;99.90;;;;;;5083661;28;19924;-63
2024/02/24 08:55:43;;;;;;;;;;;5.00;99.90;;;;;;5081134;28;19978;-63
2024/02/24 08:58:10;;;;;;;;;;;5.00;99.90;;;;;;5079766;28;19931;-63
2024/02/24 09:00:42;;;;;;;;;;;5.10;99.90;;;;;;5076525;28;19951;-63
2024/02/24 09:03:09;;;;;;;;;;;5.10;99.90;;;;;;5073696;28;19925;-63
2024/02/24 09:05:40;;;;;;;;;;;5.20;99.90;;;;;;5067400;28;19928;-63
2024/02/24 09:08:07;;;;;;;;;;;5.20;99.90;;;;;;5089846;28;19930;-63
2024/02/24 09:10:39;;;;;;;;;;;5.40;99.90;;;;;;5078692;28;19929;-63
2024/02/24 09:13:11;;;;;;;;;;;5.50;99.90;;;;;;5095262;28;19936;-63
2024/02/24 09:15:42;;;;;;;;;;;5.60;99.90;;;;;;5084588;28;19939;-63
2024/02/24 09:18:14;;;;;;;;;;;5.70;99.90;;;;;;5082118;28;19924;-63
2024/02/24 09:20:46;;;;;;;;;;;5.80;99.90;;;;;;5087026;28;19955;-63
2024/02/24 09:23:18;;;;;;;;;;;5.80;99.90;;;;;;5086684;28;19924;-64
2024/02/24 09:25:45;;;;;;;;;;;5.90;99.90;;;;;;5074355;28;19924;-63
2024/02/24 09:28:17;;;;;;;;;;;6.00;99.90;;;;;;5080950;28;19924;-63
2024/02/24 09:30:43;;;;;;;;;;;6.10;99.90;;;;;;5092240;28;20022;-63
2024/02/24 09:33:15;;;;;;;;;;;6.00;99.90;;;;;;5088168;28;19925;-63
2024/02/24 09:35:42;;;;;;;;;;;6.00;99.90;;;;;;5082370;28;20505;-63
2024/02/24 09:38:09;;;;;;;;;;;6.00;99.90;;;;;;5081481;28;20019;-63
2024/02/24 09:40:36;;;;;;;;;;;6.00;99.90;;;;;;5080383;28;20403;-63
2024/02/24 09:43:08;;;;;;;;;;;6.00;99.90;;;;;;5080320;28;19931;-63
2024/02/24 09:45:44;;;;;;;;;;;6.10;99.90;;;;;;5079144;28;19963;-63
2024/02/24 09:48:17;;;;;;;;;;;6.20;99.90;;;;;;5083723;28;19928;-63
2024/02/24 09:50:49;;;;;;;;;;;6.30;99.90;;;;;;5075333;28;20014;-63
2024/02/24 09:53:21;;;;;;;;;;;6.30;99.90;;;;;;5074965;28;20376;-63
2024/02/24 09:55:53;;;;;;;;;;;6.30;99.90;;;;;;5080486;28;20575;-63
2024/02/24 09:58:25;;;;;;;;;;;6.30;99.90;;;;;;5076178;28;19931;-63
2024/02/24 10:00:57;;;;;;;;;;;6.40;99.90;;;;;;5078449;28;19924;-63
2024/02/24 10:03:25;;;;;;;;;;;6.30;99.90;;;;;;5090772;28;19959;-63
2024/02/24 10:05:57;;;;;;;;;;;6.30;99.90;;;;;;5086842;28;19924;-63
2024/02/24 10:08:32;;;;;;;;;;;6.40;99.90;;;;;;5085291;28;19924;-63
2024/02/24 10:11:00;;;;;;;;;;;6.30;99.90;;;;;;5079445;28;20346;-63
2024/02/24 10:13:32;;;;;;;;;;;6.40;99.90;;;;;;5081904;28;19928;-63
2024/02/24 10:16:02;;;;;;;;;;;6.50;99.90;;;;;;5079917;28;19924;-63
2024/02/24 10:18:31;;;;;;;;;;;6.50;99.90;;;;;;5081487;28;19947;-63
2024/02/24 10:21:03;;;;;;;;;;;6.50;99.90;;;;;;5076032;28;19950;-63
2024/02/24 10:23:34;;;;;;;;;;;6.40;99.90;;;;;;5088391;28;19928;-63
2024/02/24 10:26:07;;;;;;;;;;;6.40;99.90;;;;;;5084790;28;19928;-63
2024/02/24 10:28:35;;;;;;;;;;;6.40;99.90;;;;;;5076115;28;19924;-63
2024/02/24 10:31:08;;;;;;;;;;;6.50;99.90;;;;;;5077596;28;19982;-63
2024/02/24 10:33:41;;;;;;;;;;;6.40;99.90;;;;;;5080505;28;19934;-63
2024/02/24 10:36:14;;;;;;;;;;;6.40;99.90;;;;;;5079995;28;19928;-63
2024/02/24 10:38:49;;;;;;;;;;;6.40;99.90;;;;;;5078648;28;19946;-63
2024/02/24 10:41:21;;;;;;;;;;;6.50;99.90;;;;;;5081842;28;20011;-63
2024/02/24 10:43:53;;;;;;;;;;;6.60;99.90;;;;;;5069418;28;19928;-63
2024/02/24 10:46:25;;;;;;;;;;;6.60;99.90;;;;;;5069788;28;19959;-63
2024/02/24 10:48:57;;;;;;;;;;;6.70;99.90;;;;;;5086237;28;19924;-63
2024/02/24 10:51:30;;;;;;;;;;;6.80;99.90;;;;;;5076436;28;19935;-63
2024/02/24 10:54:07;;;;;;;;;;;7.10;99.90;;;;;;5097674;27;20514;-63
2024/02/24 10:56:41;;;;;;;;;;;7.30;99.90;;;;;;5080169;28;19969;-63
2024/02/24 10:59:08;;;;;;;;;;;7.40;99.90;;;;;;5083510;28;19928;-63
2024/02/24 11:01:43;;;;;;;;;;;7.40;99.90;;;;;;5081358;28;20032;-63
2024/02/24 11:04:15;;;;;;;;;;;7.30;99.90;;;;;;5078834;28;19925;-63
2024/02/24 11:06:47;;;;;;;;;;;7.20;99.90;;;;;;5080505;28;19951;-63
2024/02/24 11:09:23;;;;;;;;;;;7.20;99.90;;;;;;5081084;28;19928;-63
2024/02/24 11:12:16;;;;;;;;;;;7.20;99.90;;;;;;5078396;28;19960;-63
2024/02/24 11:14:47;;;;;;;;;;;7.30;99.90;;;;;;5085246;28;19982;-63
2024/02/24 11:17:39;;;;;;;;;;;7.30;99.90;;;;;;5083243;28;20010;-64
2024/02/24 11:20:11;;;;;;;;;;;7.40;99.90;;;;;;5084447;28;19954;-62
2024/02/24 11:22:37;;;;;;;;;;;7.30;99.90;;;;;;5070503;28;20019;-63
2024/02/24 11:25:15;;;;;;;;;;;7.30;99.90;;;;;;5083212;28;19932;-65
2024/02/24 11:27:54;;;;;;;;;;;7.30;99.90;;;;;;5072138;28;20029;-72
2024/02/24 11:30:35;;;;;;;;;;;7.40;99.90;;;;;;5079064;28;19995;-70
2024/02/24 11:33:21;;;;;;;;;;;7.40;99.90;;;;;;5080481;28;19928;-63
2024/02/24 11:35:54;;;;;;;;;;;7.50;99.90;;;;;;5075103;28;20388;-70
2024/02/24 11:38:26;;;;;;;;;;;7.40;99.90;;;;;;5080821;28;20065;-63
2024/02/24 11:40:54;;;;;;;;;;;7.40;99.90;;;;;;5084730;28;19928;-63
2024/02/24 11:43:25;;;;;;;;;;;7.50;99.90;;;;;;5081419;28;19932;-63
2024/02/24 11:45:55;;;;;;;;;;;7.50;99.90;;;;;;5074901;28;19932;-66
2024/02/24 11:48:27;;;;;;;;;;;7.60;99.90;;;;;;5076674;28;19929;-62
2024/02/24 11:50:59;;;;;;;;;;;7.70;99.90;;;;;;5079265;28;19939;-65
2024/02/24 11:53:30;;;;;;;;;;;7.80;99.90;;;;;;5081000;28;19928;-64
2024/02/24 11:56:02;;;;;;;;;;;7.90;99.90;;;;;;5083823;28;19960;-65
2024/02/24 11:58:34;;;;;;;;;;;7.90;99.90;;;;;;5082796;28;19974;-64
2024/02/24 12:01:06;;;;;;;;;;;8.10;99.90;;;;;;5080349;28;20273;-65
2024/02/24 12:03:38;;;;;;;;;;;8.20;99.90;;;;;;5072827;28;20029;-67
2024/02/24 12:06:05;;;;;;;;;;;8.30;99.90;;;;;;5078558;28;19931;-65
2024/02/24 12:08:32;;;;;;;;;;;8.30;99.90;;;;;;5074590;28;20305;-65
2024/02/24 12:11:04;;;;;;;;;;;8.30;99.90;;;;;;5073529;28;20024;-64
2024/02/24 12:13:36;;;;;;;;;;;8.50;99.90;;;;;;5073872;28;19929;-65
2024/02/24 12:16:09;;;;;;;;;;;8.60;99.90;;;;;;5080713;28;19924;-65
2024/02/24 12:18:43;;;;;;;;;;;8.60;99.90;;;;;;5081159;28;19936;-65
2024/02/24 12:21:15;;;;;;;;;;;8.70;99.90;;;;;;5080493;28;20343;-65
2024/02/24 12:23:47;;;;;;;;;;;8.80;99.90;;;;;;5077387;28;19989;-65
2024/02/24 12:26:14;;;;;;;;;;;8.70;99.90;;;;;;5076682;28;19924;-64
2024/02/24 12:28:47;;;;;;;;;;;8.70;99.90;;;;;;5082489;28;20018;-64
2024/02/24 12:31:19;;;;;;;;;;;8.80;99.90;;;;;;5085811;28;20016;-64
2024/02/24 12:33:51;;;;;;;;;;;8.90;99.90;;;;;;5085589;28;19931;-64
2024/02/24 12:36:24;;;;;;;;;;;9.00;99.90;;;;;;5078148;28;20408;-64
2024/02/24 12:38:56;;;;;;;;;;;9.00;99.90;;;;;;5076768;28;20377;-65
2024/02/24 12:41:28;;;;;;;;;;;9.10;99.90;;;;;;5084428;28;20395;-65
2024/02/24 12:44:00;;;;;;;;;;;9.30;99.90;;;;;;5078920;28;19948;-65
2024/02/24 12:46:31;;;;;;;;;;;9.40;99.90;;;;;;5078809;28;19924;-64
2024/02/24 12:49:03;;;;;;;;;;;9.50;99.90;;;;;;5079881;28;20423;-63
2024/02/24 12:51:30;;;;;;;;;;;9.60;99.90;;;;;;5081083;28;19950;-64
2024/02/24 12:54:02;;;;;;;;;;;9.50;99.90;;;;;;5079324;28;20033;-65
2024/02/24 12:56:33;;;;;;;;;;;9.50;99.90;;;;;;5063427;28;20018;-64
2024/02/24 12:59:05;;;;;;;;;;;9.50;99.90;;;;;;5084132;28;19932;-65
2024/02/24 13:01:37;;;;;;;;;;;9.40;99.90;;;;;;5086902;28;20384;-65
2024/02/24 13:04:09;;;;;;;;;;;9.30;99.90;;;;;;5081136;28;19928;-64
2024/02/24 13:06:41;;;;;;;;;;;9.20;99.90;;;;;;5082603;28;19928;-65
2024/02/24 13:09:07;;;;;;;;;;;9.30;99.90;;;;;;5083703;28;20370;-65
2024/02/24 13:11:39;;;;;;;;;;;9.30;99.90;;;;;;5087846;28;20021;-65
2024/02/24 13:14:11;;;;;;;;;;;9.30;99.90;;;;;;5092703;28;19951;-65
2024/02/24 13:16:43;;;;;;;;;;;9.60;99.90;;;;;;5080557;28;19924;-64
2024/02/24 13:19:14;;;;;;;;;;;9.70;99.90;;;;;;5091943;28;19924;-65
2024/02/24 13:21:46;;;;;;;;;;;9.80;99.90;;;;;;5082527;28;19975;-65
2024/02/24 13:24:18;;;;;;;;;;;9.90;99.90;;;;;;5082657;28;19924;-64
2024/02/24 13:26:49;;;;;;;;;;;10.00;99.90;;;;;;5082871;28;19925;-64
2024/02/24 13:29:21;;;;;;;;;;;10.10;99.90;;;;;;5083768;28;19932;-65
2024/02/24 13:31:53;;;;;;;;;;;10.10;99.90;;;;;;5080655;28;20614;-65
2024/02/24 13:34:25;;;;;;;;;;;10.20;99.90;;;;;;5076120;28;19925;-65
2024/02/24 13:36:56;;;;;;;;;;;10.30;99.90;;;;;;5091672;28;19930;-65
2024/02/24 13:39:23;;;;;;;;;;;10.20;99.90;;;;;;5081050;28;19932;-65
2024/02/24 13:41:55;;;;;;;;;;;10.00;99.90;;;;;;5089995;28;19924;-65
2024/02/24 13:44:27;;;;;;;;;;;10.00;99.90;;;;;;5081545;28;19934;-65
2024/02/24 13:46:59;;;;;;;;;;;9.90;99.90;;;;;;5081681;28;19929;-65
2024/02/24 13:49:30;;;;;;;;;;;9.80;99.90;;;;;;5090332;28;19924;-65
2024/02/24 13:52:03;;;;;;;;;;;9.80;99.90;;;;;;5092120;28;20310;-65
2024/02/24 13:54:35;;;;;;;;;;;9.70;99.90;;;;;;5075856;28;20308;-64
2024/02/24 13:57:07;;;;;;;;;;;9.60;99.90;;;;;;5080416;28;20027;-62
2024/02/24 13:59:39;;;;;;;;;;;9.50;99.90;;;;;;5082209;28;20455;-67
2024/02/24 14:02:11;;;;;;;;;;;9.50;99.90;;;;;;5080986;28;19924;-65
2024/02/24 14:04:43;;;;;;;;;;;9.30;99.90;;;;;;5085377;28;19924;-64
2024/02/24 14:07:15;;;;;;;;;;;9.20;99.90;;;;;;5087179;28;19935;-64
2024/02/24 14:09:47;;;;;;;;;;;9.10;99.90;;;;;;5085596;28;20507;-64
2024/02/24 14:12:14;;;;;;;;;;;9.00;99.90;;;;;;5092038;28;19940;-64
2024/02/24 14:14:45;;;;;;;;;;;9.10;99.90;;;;;;5080019;28;19924;-64
2024/02/24 14:17:12;;;;;;;;;;;9.10;99.90;;;;;;5078134;28;20439;-65
2024/02/24 14:19:44;;;;;;;;;;;9.10;99.90;;;;;;5084092;28;20645;-64
2024/02/24 14:22:11;;;;;;;;;;;9.10;99.90;;;;;;5088434;28;19935;-64
2024/02/24 14:24:42;;;;;;;;;;;9.00;99.90;;;;;;5075705;28;19963;-64
2024/02/24 14:27:14;;;;;;;;;;;8.90;99.90;;;;;;5079220;28;19978;-64
2024/02/24 14:29:46;;;;;;;;;;;8.90;99.90;;;;;;5084071;28;19928;-64
2024/02/24 14:32:14;;;;;;;;;;;8.80;99.90;;;;;;5082177;28;20015;-64
2024/02/24 14:34:46;;;;;;;;;;;8.80;99.90;;;;;;5086253;28;20410;-64
2024/02/24 14:37:18;;;;;;;;;;;8.80;99.90;;;;;;5081549;28;20380;-64
2024/02/24 14:39:50;;;;;;;;;;;8.80;99.90;;;;;;5088775;28;19933;-64
2024/02/24 14:42:24;;;;;;;;;;;8.90;99.90;;;;;;5082305;28;19931;-64
2024/02/24 14:44:51;;;;;;;;;;;8.90;99.90;;;;;;5083036;28;19928;-64
2024/02/24 14:47:24;;;;;;;;;;;8.90;99.90;;;;;;5085849;28;20315;-64
2024/02/24 14:49:56;;;;;;;;;;;8.90;99.90;;;;;;5085541;28;19924;-64
2024/02/24 14:52:28;;;;;;;;;;;8.90;99.90;;;;;;5070048;28;19935;-64